createdAt,value
2023-02-17T00:02:19.609Z,10.20
2023-02-17T00:05:13.874Z,5.78
2023-02-17T00:08:08.068Z,6.82
2023-02-17T00:11:03.180Z,8.00
2023-02-17T00:13:57.709Z,5.25
2023-02-17T00:16:52.036Z,4.93
2023-02-17T00:19:46.970Z,9.70
2023-02-17T00:22:41.175Z,5.93
2023-02-17T00:25:35.628Z,5.60
2023-02-17T00:28:29.830Z,5.28
2023-02-17T00:31:25.651Z,7.55
2023-02-17T00:34:20.278Z,10.70
2023-02-17T00:37:14.637Z,8.00
2023-02-17T00:40:09.520Z,8.60
2023-02-17T00:43:03.780Z,8.48
2023-02-17T00:45:58.187Z,10.00
2023-02-17T00:48:53.464Z,6.65
2023-02-17T00:51:48.814Z,7.25
2023-02-17T00:54:43.484Z,6.85
2023-02-17T00:57:37.748Z,8.23
2023-02-17T01:00:32.154Z,8.40
2023-02-17T01:03:27.131Z,7.28
2023-02-17T01:06:29.495Z,6.93
2023-02-17T01:09:23.720Z,7.07
2023-02-17T01:12:18.048Z,8.93
2023-02-17T01:15:12.575Z,10.43
2023-02-17T01:18:07.084Z,11.48
2023-02-17T01:21:01.395Z,6.78
2023-02-17T01:23:57.815Z,8.35
2023-02-17T01:26:52.155Z,10.65
2023-02-17T01:29:47.404Z,8.80
2023-02-17T01:32:41.682Z,9.38
2023-02-17T01:35:36.563Z,10.35
2023-02-17T01:38:30.927Z,6.63
2023-02-17T01:41:30.651Z,7.45
2023-02-17T01:44:27.203Z,7.47
2023-02-17T01:47:21.463Z,5.57
2023-02-17T01:50:16.362Z,4.47
2023-02-17T01:53:12.639Z,6.38
2023-02-17T01:56:08.098Z,6.88
2023-02-17T01:59:09.952Z,4.75
2023-02-17T02:02:07.038Z,4.63
2023-02-17T02:05:02.026Z,10.60
2023-02-17T02:07:56.781Z,8.57
2023-02-17T02:10:51.107Z,7.55
2023-02-17T02:13:46.726Z,6.50
2023-02-17T02:17:29.208Z,7.97
2023-02-17T02:20:54.309Z,7.07
2023-02-17T02:24:10.088Z,7.40
2023-02-17T02:27:23.181Z,7.10
2023-02-17T02:30:45.339Z,6.15
2023-02-17T02:33:39.535Z,5.38
2023-02-17T02:37:02.081Z,7.10
2023-02-17T02:39:58.793Z,7.38
2023-02-17T02:42:53.476Z,5.57
2023-02-17T02:45:47.955Z,5.53
2023-02-17T02:48:43.104Z,7.32
2023-02-17T02:52:03.381Z,8.20
2023-02-17T02:55:23.496Z,8.50
2023-02-17T02:58:38.081Z,6.82
2023-02-17T03:01:50.422Z,9.60
2023-02-17T03:05:02.075Z,5.63
2023-02-17T03:08:13.974Z,5.15
2023-02-17T03:11:08.810Z,7.60
2023-02-17T03:14:04.248Z,6.40
2023-02-17T03:16:59.527Z,6.70
2023-02-17T03:19:54.300Z,6.43
2023-02-17T03:22:50.071Z,7.30
2023-02-17T03:25:46.317Z,7.03
2023-02-17T03:28:40.511Z,8.65
2023-02-17T03:31:35.558Z,7.32
2023-02-17T03:34:29.857Z,10.23
2023-02-17T03:37:24.316Z,9.02
2023-02-17T03:40:18.701Z,6.07
2023-02-17T03:43:13.241Z,7.80
2023-02-17T03:46:11.769Z,6.18
2023-02-17T03:49:06.103Z,6.53
2023-02-17T03:52:02.715Z,8.32
2023-02-17T03:54:57.049Z,7.70
2023-02-17T03:57:51.358Z,8.10
2023-02-17T04:00:45.947Z,6.80
2023-02-17T04:03:41.718Z,5.00
2023-02-17T04:06:36.040Z,7.07
2023-02-17T04:09:30.372Z,5.55
2023-02-17T04:12:24.893Z,7.78
2023-02-17T04:15:19.247Z,7.88
2023-02-17T04:18:13.622Z,5.43
2023-02-17T04:21:08.217Z,8.30
2023-02-17T04:24:04.353Z,8.27
2023-02-17T04:26:58.548Z,8.60
2023-02-17T04:29:53.660Z,8.93
2023-02-17T04:32:47.970Z,6.18
2023-02-17T04:35:42.873Z,10.05
2023-02-17T04:38:37.310Z,7.93
2023-02-17T04:41:31.550Z,4.78
2023-02-17T04:44:25.792Z,6.53
2023-02-17T04:47:20.103Z,7.35
2023-02-17T04:50:14.667Z,6.22
2023-02-17T04:53:09.558Z,7.03
2023-02-17T04:56:04.031Z,8.68
2023-02-17T04:58:58.550Z,5.95
2023-02-17T05:01:53.612Z,8.30
2023-02-17T05:04:48.367Z,5.40
2023-02-17T05:07:43.690Z,6.72
2023-02-17T05:10:38.092Z,6.22
2023-02-17T05:13:34.355Z,4.47
2023-02-17T05:16:28.629Z,6.68
2023-02-17T05:19:22.897Z,11.27
2023-02-17T05:22:17.328Z,5.55
2023-02-17T05:25:11.549Z,8.75
2023-02-17T05:28:05.976Z,8.40
2023-02-17T05:31:00.208Z,4.45
2023-02-17T05:33:56.821Z,4.68
2023-02-17T05:36:51.043Z,8.35
2023-02-17T05:39:45.360Z,6.28
2023-02-17T05:42:39.788Z,6.90
2023-02-17T05:45:34.055Z,6.25
2023-02-17T05:48:28.351Z,6.80
2023-02-17T05:51:22.657Z,7.82
2023-02-17T05:54:16.943Z,8.20
2023-02-17T05:57:11.221Z,8.68
2023-02-17T06:00:06.755Z,4.88
2023-02-17T06:03:01.108Z,6.15
2023-02-17T06:05:55.371Z,6.38
2023-02-17T06:08:49.974Z,6.07
2023-02-17T06:11:44.251Z,6.97
2023-02-17T06:14:38.515Z,8.05
2023-02-17T06:17:32.780Z,6.60
2023-02-17T06:20:27.355Z,4.70
2023-02-17T06:23:21.574Z,6.20
2023-02-17T06:26:15.924Z,6.43
2023-02-17T06:29:10.208Z,8.63
2023-02-17T06:32:05.092Z,4.57
2023-02-17T06:34:59.565Z,4.85
2023-02-17T06:37:54.145Z,5.57
2023-02-17T06:40:48.567Z,2.97
2023-02-17T06:43:42.987Z,3.20
2023-02-17T06:46:37.413Z,5.20
2023-02-17T06:49:31.805Z,5.47
2023-02-17T06:52:26.064Z,5.75
2023-02-17T06:55:20.373Z,6.25
2023-02-17T06:58:14.668Z,7.50
2023-02-17T07:01:10.873Z,5.30
2023-02-17T07:04:05.160Z,5.65
2023-02-17T07:06:59.394Z,7.07
2023-02-17T07:09:53.752Z,5.82
2023-02-17T07:12:48.560Z,7.85
2023-02-17T07:15:42.999Z,6.82
2023-02-17T07:18:39.076Z,6.50
2023-02-17T07:21:33.466Z,4.73
2023-02-17T07:24:28.347Z,7.25
2023-02-17T07:27:22.633Z,5.38
2023-02-17T07:30:17.228Z,7.05
2023-02-17T07:33:14.785Z,5.93
2023-02-17T07:36:10.769Z,5.78
2023-02-17T07:39:06.081Z,4.50
2023-02-17T07:42:02.208Z,5.30
2023-02-17T07:44:56.616Z,4.57
2023-02-17T07:47:50.890Z,5.65
2023-02-17T07:50:45.158Z,7.85
2023-02-17T07:53:39.902Z,3.35
2023-02-17T07:56:35.173Z,6.05
2023-02-17T07:59:29.629Z,5.30
2023-02-17T08:02:24.072Z,7.90
2023-02-17T08:05:18.418Z,5.80
2023-02-17T08:08:31.110Z,4.05
2023-02-17T08:11:44.836Z,6.40
2023-02-17T08:14:40.022Z,3.53
2023-02-17T08:17:34.401Z,4.38
2023-02-17T08:20:29.159Z,5.05
2023-02-17T08:23:23.922Z,5.93
2023-02-17T08:26:19.023Z,3.42
2023-02-17T08:29:13.327Z,3.25
2023-02-17T08:32:07.825Z,3.97
2023-02-17T08:35:02.980Z,6.25
2023-02-17T08:37:57.265Z,5.05
2023-02-17T08:40:52.024Z,5.32
2023-02-17T08:43:46.646Z,5.45
2023-02-17T08:46:43.143Z,5.25
2023-02-17T08:49:38.811Z,4.00
2023-02-17T08:52:34.176Z,6.05
2023-02-17T08:55:35.543Z,6.15
2023-02-17T08:58:41.013Z,3.97
2023-02-17T09:01:38.268Z,5.50
2023-02-17T09:04:34.194Z,4.43
2023-02-17T09:07:28.805Z,4.40
2023-02-17T09:10:23.322Z,6.85
2023-02-17T09:13:18.455Z,5.28
2023-02-17T09:16:13.148Z,2.78
2023-02-17T09:19:07.927Z,6.15
2023-02-17T09:22:02.238Z,5.80
2023-02-17T09:24:56.569Z,3.80
2023-02-17T09:27:51.429Z,6.00
2023-02-17T09:30:46.461Z,6.28
2023-02-17T09:33:42.712Z,6.30
2023-02-17T09:36:42.101Z,5.57
2023-02-17T09:39:36.352Z,3.55
2023-02-17T09:42:31.744Z,3.50
2023-02-17T09:45:31.709Z,6.40
2023-02-17T09:48:31.260Z,3.53
2023-02-17T09:51:36.272Z,4.05
2023-02-17T09:54:38.475Z,7.70
2023-02-17T09:57:43.756Z,7.63
2023-02-17T10:01:00.710Z,4.53
2023-02-17T10:04:08.044Z,3.45
2023-02-17T10:07:11.441Z,4.47
2023-02-17T10:10:16.975Z,4.95
2023-02-17T10:13:11.996Z,5.97
2023-02-17T10:16:11.444Z,3.97
2023-02-17T10:19:34.058Z,2.70
2023-02-17T10:22:29.294Z,4.15
2023-02-17T10:25:38.126Z,4.65
2023-02-17T10:28:35.538Z,5.00
2023-02-17T10:31:47.253Z,4.85
2023-02-17T10:35:19.918Z,5.07
2023-02-17T10:38:19.181Z,5.90
2023-02-17T10:41:18.400Z,3.63
2023-02-17T10:44:23.099Z,4.53
2023-02-17T10:47:17.929Z,3.47
2023-02-17T10:50:26.606Z,7.85
2023-02-17T10:53:22.670Z,4.53
2023-02-17T10:56:19.590Z,5.00
2023-02-17T10:59:46.995Z,4.18
2023-02-17T11:02:47.339Z,4.45
2023-02-17T11:05:43.135Z,3.42
2023-02-17T11:08:47.071Z,4.38
2023-02-17T11:11:59.545Z,4.20
2023-02-17T11:14:56.515Z,5.35
2023-02-17T11:17:52.195Z,2.10
2023-02-17T11:20:46.687Z,4.70
2023-02-17T11:24:05.931Z,4.65
2023-02-17T11:27:09.601Z,3.72
2023-02-17T11:30:20.321Z,4.38
2023-02-17T11:33:23.748Z,2.97
2023-02-17T11:36:33.587Z,5.75
2023-02-17T11:39:28.429Z,3.80
2023-02-17T11:42:32.101Z,3.60
2023-02-17T11:45:29.357Z,2.55
2023-02-17T11:51:41.951Z,3.72
2023-02-17T11:54:59.503Z,4.50
2023-02-17T11:58:16.392Z,5.05
2023-02-17T12:01:42.606Z,2.67
2023-02-17T12:04:44.440Z,4.50
2023-02-17T12:08:21.470Z,1.95
2023-02-17T12:11:26.004Z,3.85
2023-02-17T12:14:48.322Z,4.85
2023-02-17T12:17:57.198Z,3.58
2023-02-17T12:21:17.051Z,3.40
2023-02-17T12:24:38.642Z,3.63
2023-02-17T12:28:09.840Z,6.07
2023-02-17T12:31:18.263Z,2.65
2023-02-17T12:34:54.406Z,3.70
2023-02-17T12:38:13.530Z,4.10
2023-02-17T12:41:11.394Z,5.35
2023-02-17T12:44:30.691Z,3.80
2023-02-17T12:47:40.197Z,2.95
2023-02-17T12:50:49.534Z,3.38
2023-02-17T12:54:10.474Z,3.65
2023-02-17T12:57:07.753Z,4.43
2023-02-17T13:03:01.262Z,3.13
2023-02-17T13:06:04.981Z,3.28
2023-02-17T13:09:17.229Z,6.07
2023-02-17T13:12:26.699Z,1.42
2023-02-17T13:15:44.175Z,1.50
2023-02-17T13:18:41.702Z,2.30
2023-02-17T13:21:36.127Z,1.70
2023-02-17T13:24:55.423Z,2.90
2023-02-17T13:27:49.659Z,1.80
2023-02-17T13:30:46.526Z,2.03
2023-02-17T13:33:52.638Z,2.22
2023-02-17T13:36:47.175Z,3.38
2023-02-17T13:39:41.507Z,1.50
2023-02-17T13:42:38.141Z,2.17
2023-02-17T13:45:41.329Z,2.72
2023-02-17T13:48:37.549Z,2.70
2023-02-17T13:51:33.282Z,2.55
2023-02-17T13:54:27.515Z,1.48
2023-02-17T13:57:26.200Z,2.95
2023-02-17T14:00:25.681Z,1.27
2023-02-17T14:03:25.109Z,3.97
2023-02-17T14:06:39.080Z,2.20
2023-02-17T14:09:35.293Z,3.58
2023-02-17T14:12:30.024Z,3.40
2023-02-17T14:15:27.086Z,2.10
2023-02-17T14:18:33.587Z,2.95
2023-02-17T14:21:28.940Z,4.47
2023-02-17T14:24:41.438Z,1.35
2023-02-17T14:27:47.319Z,2.88
2023-02-17T14:30:44.086Z,2.35
2023-02-17T14:33:38.503Z,1.73
2023-02-17T14:36:36.492Z,2.17
2023-02-17T14:39:30.706Z,3.28
2023-02-17T14:42:24.986Z,2.28
2023-02-17T14:45:20.507Z,2.75
2023-02-17T14:48:14.958Z,3.15
2023-02-17T14:51:16.228Z,3.80
2023-02-17T14:54:19.160Z,2.88
2023-02-17T14:57:16.386Z,1.40
2023-02-17T15:06:03.161Z,1.38
2023-02-17T15:08:57.617Z,1.33
2023-02-17T15:11:52.067Z,3.42
2023-02-17T15:14:48.246Z,0.95
2023-02-17T15:17:42.497Z,2.17
2023-02-17T15:20:36.809Z,1.17
2023-02-17T15:23:33.724Z,1.92
2023-02-17T15:26:29.097Z,2.05
2023-02-17T15:29:28.758Z,3.03
2023-02-17T15:32:25.181Z,0.70
2023-02-17T15:35:22.977Z,1.63
2023-02-17T15:38:17.342Z,0.85
2023-02-17T15:41:31.622Z,2.45
2023-02-17T15:44:29.909Z,1.50
2023-02-17T15:47:24.210Z,4.55
2023-02-17T15:50:23.928Z,2.92
2023-02-17T15:53:18.286Z,1.00
2023-02-17T15:56:20.469Z,2.70
2023-02-17T15:59:23.762Z,0.88
2023-02-17T16:02:23.604Z,1.42
2023-02-17T16:05:20.177Z,2.85
2023-02-17T16:08:14.500Z,1.98
2023-02-17T16:11:10.713Z,1.95
2023-02-17T16:14:05.643Z,2.35
2023-02-17T16:17:00.127Z,0.80
2023-02-17T16:19:54.381Z,1.75
2023-02-17T16:22:49.322Z,1.45
2023-02-17T16:25:46.905Z,1.67
2023-02-17T16:28:41.205Z,2.13
2023-02-17T16:31:37.122Z,2.55
2023-02-17T16:34:35.891Z,1.58
2023-02-17T16:37:30.209Z,0.32
2023-02-17T16:40:27.437Z,0.40
2023-02-17T16:43:28.929Z,0.77
2023-02-17T16:46:34.765Z,1.45
2023-02-17T16:49:38.235Z,1.23
2023-02-17T16:52:32.579Z,1.38
2023-02-17T16:55:30.887Z,0.98
2023-02-17T16:58:28.224Z,2.33
2023-02-17T17:04:19.170Z,1.40
2023-02-17T17:07:17.276Z,2.45
2023-02-17T17:10:23.453Z,2.15
2023-02-17T17:13:17.826Z,3.13
2023-02-17T17:16:15.817Z,0.68
2023-02-17T17:19:12.005Z,1.17
2023-02-17T17:22:06.248Z,0.70
2023-02-17T17:25:00.900Z,1.17
2023-02-17T17:27:55.567Z,0.98
2023-02-17T17:30:49.842Z,1.48
2023-02-17T17:33:44.409Z,1.17
2023-02-17T17:36:42.107Z,1.02
2023-02-17T17:39:37.402Z,1.45
2023-02-17T17:42:31.681Z,2.00
2023-02-17T17:45:27.438Z,1.70
2023-02-17T17:48:21.956Z,1.98
2023-02-17T17:51:18.323Z,3.13
2023-02-17T17:54:12.756Z,1.33
2023-02-17T17:57:07.106Z,0.73
2023-02-17T18:00:01.442Z,1.10
2023-02-17T18:02:55.775Z,0.52
2023-02-17T18:05:50.698Z,1.83
2023-02-17T18:08:47.550Z,1.20
2023-02-17T18:11:43.932Z,0.85
2023-02-17T18:14:40.463Z,1.47
2023-02-17T18:17:37.440Z,2.10
2023-02-17T18:20:34.872Z,1.63
2023-02-17T18:23:29.145Z,1.60
2023-02-17T18:26:24.058Z,1.92
2023-02-17T18:29:18.625Z,0.30
2023-02-17T18:32:13.137Z,1.40
2023-02-17T18:35:07.895Z,1.35
2023-02-17T18:38:02.609Z,0.82
2023-02-17T18:40:56.844Z,1.50
2023-02-17T18:43:51.534Z,1.08
2023-02-17T18:46:45.858Z,2.10
2023-02-17T18:49:40.438Z,1.85
2023-02-17T18:52:35.430Z,1.80
2023-02-17T18:55:29.776Z,2.35
2023-02-17T18:58:24.120Z,0.60
2023-02-17T19:01:27.045Z,1.77
2023-02-17T19:04:21.299Z,1.50
2023-02-17T19:07:15.557Z,1.00
2023-02-17T19:10:10.616Z,0.60
2023-02-17T19:13:05.059Z,0.70
2023-02-17T19:16:14.044Z,0.80
2023-02-17T19:19:08.420Z,1.35
2023-02-17T19:22:03.074Z,4.10
2023-02-17T19:24:57.702Z,1.38
2023-02-17T19:27:52.056Z,1.83
2023-02-17T19:30:46.340Z,1.77
2023-02-17T19:33:41.357Z,1.50
2023-02-17T19:36:35.696Z,0.68
2023-02-17T19:39:29.918Z,1.38
2023-02-17T19:42:24.557Z,2.83
2023-02-17T19:45:18.880Z,0.38
2023-02-17T19:48:13.350Z,0.90
2023-02-17T19:51:09.693Z,1.95
2023-02-17T19:54:04.496Z,1.27
2023-02-17T19:56:58.863Z,1.13
2023-02-17T19:59:53.147Z,1.15
2023-02-17T20:02:47.840Z,1.33
2023-02-17T20:05:43.471Z,0.60
2023-02-17T20:08:37.902Z,1.52
2023-02-17T20:11:33.562Z,0.93
2023-02-17T20:14:28.024Z,0.40
2023-02-17T20:17:22.735Z,1.88
2023-02-17T20:20:17.242Z,1.63
2023-02-17T20:23:11.562Z,0.88
2023-02-17T20:26:17.713Z,0.73
2023-02-17T20:29:13.025Z,1.83
2023-02-17T20:32:08.105Z,2.60
2023-02-17T20:35:02.857Z,1.98
2023-02-17T20:37:57.221Z,1.20
2023-02-17T20:40:51.613Z,0.55
2023-02-17T20:43:46.426Z,1.35
2023-02-17T20:46:43.878Z,1.52
2023-02-17T20:49:38.202Z,0.60
2023-02-17T20:52:32.559Z,1.30
2023-02-17T20:55:27.688Z,1.15
2023-02-17T20:58:22.098Z,0.38
2023-02-17T21:01:16.791Z,1.13
2023-02-17T21:04:12.426Z,1.23
2023-02-17T21:07:06.911Z,1.35
2023-02-17T21:10:01.266Z,1.25
2023-02-17T21:12:55.962Z,0.80
2023-02-17T21:15:50.717Z,0.90
2023-02-17T21:18:47.073Z,1.02
2023-02-17T21:21:42.385Z,0.67
2023-02-17T21:24:36.710Z,1.13
2023-02-17T21:27:31.335Z,1.30
2023-02-17T21:30:26.760Z,1.15
2023-02-17T21:33:21.120Z,0.40
2023-02-17T21:36:17.778Z,1.17
2023-02-17T21:39:12.085Z,1.08
2023-02-17T21:42:06.506Z,1.05
2023-02-17T21:45:01.314Z,1.38
2023-02-17T21:47:55.646Z,1.77
2023-02-17T21:50:49.995Z,1.60
2023-02-17T21:53:44.834Z,0.82
2023-02-17T21:56:39.349Z,0.55
2023-02-17T21:59:33.727Z,1.75
2023-02-17T22:02:28.107Z,1.15
2023-02-17T22:05:22.371Z,1.65
2023-02-17T22:08:16.780Z,0.63
2023-02-17T22:11:23.393Z,3.90
2023-02-17T22:14:20.544Z,1.98
2023-02-17T22:17:14.854Z,0.73
2023-02-17T22:20:09.824Z,2.28
2023-02-17T22:23:04.037Z,1.25
2023-02-17T22:25:58.615Z,1.80
2023-02-17T22:28:53.326Z,0.60
2023-02-17T22:31:48.688Z,2.58
2023-02-17T22:34:43.061Z,1.33
2023-02-17T22:37:38.409Z,1.50
2023-02-17T22:40:32.718Z,0.50
2023-02-17T22:43:27.232Z,1.83
2023-02-17T22:46:26.138Z,2.47
2023-02-17T22:49:21.660Z,2.67
2023-02-17T22:52:16.417Z,0.50
2023-02-17T22:55:10.901Z,1.88
2023-02-17T22:58:05.489Z,3.60
2023-02-17T23:01:12.006Z,2.13
2023-02-17T23:04:08.082Z,0.75
2023-02-17T23:07:02.951Z,0.93
2023-02-17T23:09:57.827Z,2.08
2023-02-17T23:12:53.148Z,2.45
2023-02-17T23:15:47.991Z,0.65
2023-02-17T23:18:43.259Z,0.70
2023-02-17T23:21:39.394Z,1.95
2023-02-17T23:24:33.936Z,1.42
2023-02-17T23:27:28.571Z,1.27
2023-02-17T23:30:24.684Z,0.77
2023-02-17T23:33:23.875Z,1.27
2023-02-17T23:36:18.816Z,2.55
2023-02-17T23:39:14.249Z,2.40
2023-02-17T23:42:08.886Z,2.28
2023-02-17T23:45:04.650Z,2.22
2023-02-17T23:47:59.432Z,1.95
2023-02-17T23:51:05.509Z,0.75
2023-02-17T23:54:00.306Z,1.77
2023-02-17T23:56:55.145Z,3.28
2023-02-17T23:59:49.696Z,1.92
